Clarksburg, New Jersey
Current Conditions -  °F | °C
As of 4:30 AM on Monday 24 Nov 2014 (Local Time) from KWRI Reporting Station
Overcast Overcast  
Wind Chill: 61°   Ceiling: 800
Heat Index: 61°   Visibility: 10mi
Dew Point: 61°   Wind: 18mph
Humidity: 100%   Direction: 190°S
Pressure: 29.7"   Gusts: 32mph
Location:  40.19°N, 74.44°W
Report Text: KWRI 240930Z AUTO 19016G28KT 10SM OVC008 16/16 A2970 RMK AO2 RAE0925
Loading
Personal Weather Stations






























Interactive Weather Map New forecast layout! Learn more

10-Day Weather Forecast

Advertisements
Track Severe Weather on mobile